Cheshire, Connecticut
Current Conditions -  °F | °C
As of 10:53 PM on Saturday 22 Nov 2014 (Local Time) from KMMK Reporting Station
Broken Clouds Broken Clouds  
Wind Chill: 38°   Ceiling: 5000
Heat Index: 43°   Visibility: 10mi
Dew Point: 17°   Wind: 8mph
Humidity: 35%   Direction: 200°SSW
Pressure: 30.16"   Gusts: NA
Location:  41.5°N, 72.9°W
Report Text: KMMK 230353Z AUTO 20007KT 10SM BKN050 BKN060 06/M08 A3016 RMK AO2 SLP214 T00611083 TSNO
Loading
Personal Weather Stations






























Interactive Weather Map New forecast layout! Learn more

10-Day Weather Forecast

Advertisements
Track Severe Weather on mobile